Flight Track Log - Related Links

Times and Time Zones

All times are in EDT time to prevent confusion due to time zone crossing. See the JBU1815 flight status page for this flight to view local times or setup timezone preferences in your user account.

Time Position Orientation Groundspeed Altitude Reporting Facility
EDT Latitude Longitude Course Direction KTS MPH feet Rate Location/Type
Mon 07:21:17 PM 43.1072 -76.1406 154° Southeast 156 180 1,300  Level Boston Center
Mon 07:22:12 PM 43.0719 -76.1356 174° South 212 244 2,900 2,190 Climbing Boston Center
Mon 07:23:34 PM 43.0119 -76.0581 137° Southeast 243 280 6,300 2,517 Climbing Boston Center
Mon 07:24:00 PM 42.8203 -75.8609 139° Southeast  Level FlightAware Approximate
Mon 07:24:35 PM 42.9514 -75.9947 143° Southeast 265 305 8,900  Level Boston Center
Mon 07:25:00 PM 42.7538 -75.7914 154° Southeast  Level FlightAware Approximate
Mon 07:25:34 PM 42.8869 -75.9258 142° Southeast 281 323 12,000  Level Boston Center
Mon 07:26:00 PM 42.6782 -75.7410 154° Southeast  Level FlightAware Approximate
Mon 07:26:35 PM 42.8100 -75.8508 144° Southeast 311 358 13,600  Level Boston Center
Mon 07:27:36 PM 42.7203 -75.7781 149° Southeast 345 397 16,000 2,281 Climbing Boston Center
Mon 07:28:36 PM 42.6242 -75.7106 153° Southeast 372 428 18,200 2,350 Climbing Boston Center
Mon 07:29:36 PM 42.5206 -75.6150 146° Southeast 400 460 20,700 1,424 Climbing Boston Center
Mon 07:30:34 PM 42.4536 -75.4794 124° Southeast 410 472 21,000 153 Climbing Boston Center
Mon 07:31:34 PM 42.3906 -75.3386 121° Southeast 423 487 21,000  Level Boston Center
Mon 07:32:36 PM 42.3250 -75.2006 123° Southeast 435 501 21,000  Level Boston Center
Mon 07:33:36 PM 42.2597 -75.0631 123° Southeast 435 501 21,000  Level Boston Center
Mon 07:34:34 PM 42.1939 -74.9231 122° Southeast 440 506 21,000  Level Boston Center
Mon 07:35:36 PM 42.1303 -74.7861 122° Southeast 440 506 21,000  Level Boston Center
Mon 07:36:34 PM 42.0642 -74.6550 124° Southeast 440 506 21,000  Level Boston Center
Mon 07:37:36 PM 42.0081 -74.5272 121° Southeast 440 506 21,000  Level Boston Center
Mon 07:38:36 PM 41.9375 -74.3881 124° Southeast 434 499 21,000  Level Boston Center
Mon 07:41:08 PM 41.7100 -74.1778 145° Southeast 386 444 21,000  Level New York Center
Mon 07:42:08 PM 41.6028 -74.1417 166° South 386 444 21,000  Level New York Center
Mon 07:43:06 PM 41.5122 -74.1039 163° South 386 444 21,000 -454 Level New York Center
Mon 07:44:07 PM 41.4072 -74.0683 166° South 391 450 20,100 -492 Descending New York Center
Mon 07:45:08 PM 41.3008 -74.0742 182° South 386 444 20,000 -50 Descending New York Center
Mon 07:46:07 PM 41.1961 -74.0908 187° South 384 442 20,000  Level New York Center
Mon 07:47:07 PM 41.0936 -74.1081 187° South 384 442 20,000 -536 Level New York Center
Mon 07:47:59 PM 40.9833 -74.1167 183° South 372 428 19,000 -536 Descending New York TRACON
Mon 07:48:59 PM 40.9000 -74.0833 163° South 346 398 19,000  Level New York TRACON
Mon 07:49:59 PM 40.8167 -74.0500 163° South 334 384 19,000 -800 Level New York TRACON
Mon 07:50:59 PM 40.7333 -74.0333 171° South 329 379 17,400 -1,619 Descending New York TRACON
Mon 07:52:05 PM 40.6333 -74.0000 166° South 323 372 15,600 -1,619 Descending New York TRACON
Mon 07:53:05 PM 40.5500 -73.9833 171° South 302 348 14,000 -1,842 Descending New York TRACON
Mon 07:53:59 PM 40.4833 -73.9500 159° South 312 359 12,100 -2,000 Descending New York TRACON
Mon 07:54:59 PM 40.4167 -73.8667 136° Southeast 302 348 10,200 -1,800 Descending New York TRACON
Mon 07:55:59 PM 40.3500 -73.8000 143° Southeast 286 329 8,500 -1,750 Descending New York TRACON
Mon 07:56:59 PM 40.2833 -73.7333 143° Southeast 282 325 6,700 -1,700 Descending New York TRACON
Mon 07:57:59 PM 40.3167 -73.6500 62° Northeast 301 346 5,100 -1,350 Descending New York TRACON
Mon 07:58:59 PM 40.3833 -73.6000 30° Northeast 280 322 4,000 -550 Descending New York TRACON
Mon 07:59:59 PM 40.4500 -73.5500 30° Northeast 279 321 4,000  Level New York TRACON
Mon 08:00:59 PM 40.5167 -73.5000 30° Northeast 241 277 4,000  Level New York TRACON
Mon 08:01:54 PM 40.5500 -73.4500 49° Northeast 236 272 4,000  Level New York TRACON
Mon 08:02:54 PM 40.6167 -73.4167 21° North 236 272 4,000  Level New York TRACON
Mon 08:03:54 PM 40.6667 -73.4167 360° North 194 223 4,000 -50 Level New York TRACON
Mon 08:04:54 PM 40.7167 -73.4500 333° Northwest 188 216 3,900 -480 Descending New York TRACON
Mon 08:05:59 PM 40.7667 -73.4833 333° Northwest 183 211 3,000 -576 Descending New York TRACON
Mon 08:06:59 PM 40.8000 -73.5333 311° West 182 209 2,700 -500 Descending New York TRACON
Mon 08:07:59 PM 40.8000 -73.5833 270° West 173 199 2,000 -350 Descending New York TRACON
Mon 08:08:59 PM 40.7667 -73.6333 229° Southwest 176 203 2,000  Level New York TRACON
Mon 08:09:59 PM 40.7333 -73.6833 229° Southwest 168 193 2,000 -400 Level New York TRACON
Mon 08:10:59 PM 40.7000 -73.7167 217° Southwest 144 166 1,200 -700 Descending New York TRACON
Mon 08:11:59 PM 40.6667 -73.7333 201° Southwest 135 155 600 -600 Descending New York TRACON

Login

Don't have an account? Register now (free) for customized features, flight alerts, and more!